sensor_id;sensor_type;location;lat;lon;timestamp;P1;durP1;ratioP1;P2;durP2;ratioP2
6223;SDS011;3145;42.726;23.342;2022-10-16T00:00:43;18.57;;;12.30;;
6223;SDS011;3145;42.726;23.342;2022-10-16T00:03:10;12.60;;;10.60;;
6223;SDS011;3145;42.726;23.342;2022-10-16T00:05:38;11.63;;;10.53;;
6223;SDS011;3145;42.726;23.342;2022-10-16T00:08:07;14.57;;;10.67;;
6223;SDS011;3145;42.726;23.342;2022-10-16T00:10:35;13.13;;;11.00;;
6223;SDS011;3145;42.726;23.342;2022-10-16T00:13:02;16.73;;;10.97;;
6223;SDS011;3145;42.726;23.342;2022-10-16T00:15:29;15.67;;;11.83;;
6223;SDS011;3145;42.726;23.342;2022-10-16T00:17:56;13.10;;;11.10;;
6223;SDS011;3145;42.726;23.342;2022-10-16T00:20:23;13.90;;;11.27;;
6223;SDS011;3145;42.726;23.342;2022-10-16T00:22:50;13.50;;;10.87;;
6223;SDS011;3145;42.726;23.342;2022-10-16T00:25:18;13.73;;;11.70;;
6223;SDS011;3145;42.726;23.342;2022-10-16T00:27:44;13.50;;;10.80;;
6223;SDS011;3145;42.726;23.342;2022-10-16T00:30:11;13.50;;;10.73;;
6223;SDS011;3145;42.726;23.342;2022-10-16T00:32:38;11.70;;;9.77;;
6223;SDS011;3145;42.726;23.342;2022-10-16T00:35:05;12.10;;;10.90;;
6223;SDS011;3145;42.726;23.342;2022-10-16T00:37:32;15.80;;;10.40;;
6223;SDS011;3145;42.726;23.342;2022-10-16T00:39:59;16.20;;;11.83;;
6223;SDS011;3145;42.726;23.342;2022-10-16T00:42:27;12.63;;;10.90;;
6223;SDS011;3145;42.726;23.342;2022-10-16T00:44:54;14.57;;;10.33;;
6223;SDS011;3145;42.726;23.342;2022-10-16T00:47:23;12.00;;;10.77;;
6223;SDS011;3145;42.726;23.342;2022-10-16T00:50:02;11.53;;;10.43;;
6223;SDS011;3145;42.726;23.342;2022-10-16T00:52:34;12.77;;;10.00;;
6223;SDS011;3145;42.726;23.342;2022-10-16T00:55:03;12.27;;;11.07;;
6223;SDS011;3145;42.726;23.342;2022-10-16T00:57:34;13.27;;;10.67;;
6223;SDS011;3145;42.726;23.342;2022-10-16T01:00:01;11.03;;;10.03;;
6223;SDS011;3145;42.726;23.342;2022-10-16T01:02:28;12.30;;;10.80;;
6223;SDS011;3145;42.726;23.342;2022-10-16T01:04:55;11.53;;;10.30;;
6223;SDS011;3145;42.726;23.342;2022-10-16T01:07:28;11.67;;;10.27;;
6223;SDS011;3145;42.726;23.342;2022-10-16T01:10:06;13.60;;;10.90;;
6223;SDS011;3145;42.726;23.342;2022-10-16T01:12:40;11.60;;;10.10;;
6223;SDS011;3145;42.726;23.342;2022-10-16T01:15:12;13.60;;;10.67;;
6223;SDS011;3145;42.726;23.342;2022-10-16T01:17:45;11.17;;;10.07;;
6223;SDS011;3145;42.726;23.342;2022-10-16T01:20:18;11.47;;;10.17;;
6223;SDS011;3145;42.726;23.342;2022-10-16T01:22:59;13.13;;;10.10;;
6223;SDS011;3145;42.726;23.342;2022-10-16T01:25:36;11.70;;;10.63;;
6223;SDS011;3145;42.726;23.342;2022-10-16T01:28:16;11.53;;;10.40;;
6223;SDS011;3145;42.726;23.342;2022-10-16T01:30:45;18.57;;;10.73;;
6223;SDS011;3145;42.726;23.342;2022-10-16T01:33:14;11.93;;;10.27;;
6223;SDS011;3145;42.726;23.342;2022-10-16T01:35:45;12.27;;;10.97;;
6223;SDS011;3145;42.726;23.342;2022-10-16T01:38:18;12.77;;;11.43;;
6223;SDS011;3145;42.726;23.342;2022-10-16T01:40:50;12.97;;;11.57;;
6223;SDS011;3145;42.726;23.342;2022-10-16T01:43:24;14.10;;;11.70;;
6223;SDS011;3145;42.726;23.342;2022-10-16T01:45:53;12.07;;;10.87;;
6223;SDS011;3145;42.726;23.342;2022-10-16T01:48:21;14.67;;;10.70;;
6223;SDS011;3145;42.726;23.342;2022-10-16T01:50:50;11.97;;;10.80;;
6223;SDS011;3145;42.726;23.342;2022-10-16T01:53:21;14.90;;;10.20;;
6223;SDS011;3145;42.726;23.342;2022-10-16T01:55:50;13.97;;;11.77;;
6223;SDS011;3145;42.726;23.342;2022-10-16T01:58:23;11.97;;;10.60;;
6223;SDS011;3145;42.726;23.342;2022-10-16T02:00:51;13.33;;;9.90;;
6223;SDS011;3145;42.726;23.342;2022-10-16T02:03:20;11.80;;;9.70;;
6223;SDS011;3145;42.726;23.342;2022-10-16T02:05:49;12.17;;;10.87;;
6223;SDS011;3145;42.726;23.342;2022-10-16T02:08:18;10.07;;;9.07;;
6223;SDS011;3145;42.726;23.342;2022-10-16T02:10:45;10.70;;;9.70;;
6223;SDS011;3145;42.726;23.342;2022-10-16T02:13:12;12.43;;;10.20;;
6223;SDS011;3145;42.726;23.342;2022-10-16T02:15:44;11.37;;;10.03;;
6223;SDS011;3145;42.726;23.342;2022-10-16T02:18:11;12.40;;;11.10;;
6223;SDS011;3145;42.726;23.342;2022-10-16T02:20:40;11.63;;;10.53;;
6223;SDS011;3145;42.726;23.342;2022-10-16T02:23:12;11.90;;;10.63;;
6223;SDS011;3145;42.726;23.342;2022-10-16T02:25:45;12.00;;;10.70;;
6223;SDS011;3145;42.726;23.342;2022-10-16T02:28:15;11.20;;;10.10;;
6223;SDS011;3145;42.726;23.342;2022-10-16T02:30:46;13.93;;;11.40;;
6223;SDS011;3145;42.726;23.342;2022-10-16T02:33:18;13.87;;;11.47;;
6223;SDS011;3145;42.726;23.342;2022-10-16T02:35:47;16.00;;;10.90;;
6223;SDS011;3145;42.726;23.342;2022-10-16T02:38:17;16.27;;;11.57;;
6223;SDS011;3145;42.726;23.342;2022-10-16T02:40:45;12.20;;;10.90;;
6223;SDS011;3145;42.726;23.342;2022-10-16T02:43:12;13.50;;;11.40;;
6223;SDS011;3145;42.726;23.342;2022-10-16T02:45:39;11.30;;;10.17;;
6223;SDS011;3145;42.726;23.342;2022-10-16T02:48:07;13.47;;;10.60;;
6223;SDS011;3145;42.726;23.342;2022-10-16T02:50:34;12.73;;;10.60;;
6223;SDS011;3145;42.726;23.342;2022-10-16T02:53:01;11.60;;;10.50;;
6223;SDS011;3145;42.726;23.342;2022-10-16T02:55:28;13.20;;;10.50;;
6223;SDS011;3145;42.726;23.342;2022-10-16T02:57:54;11.93;;;10.73;;
6223;SDS011;3145;42.726;23.342;2022-10-16T03:00:21;13.07;;;11.03;;
6223;SDS011;3145;42.726;23.342;2022-10-16T03:02:48;12.33;;;10.90;;
6223;SDS011;3145;42.726;23.342;2022-10-16T03:05:16;12.37;;;11.17;;
6223;SDS011;3145;42.726;23.342;2022-10-16T03:07:43;11.70;;;10.53;;
6223;SDS011;3145;42.726;23.342;2022-10-16T03:10:09;11.67;;;10.57;;
6223;SDS011;3145;42.726;23.342;2022-10-16T03:12:36;12.67;;;10.83;;
6223;SDS011;3145;42.726;23.342;2022-10-16T03:15:03;15.00;;;11.10;;
6223;SDS011;3145;42.726;23.342;2022-10-16T03:17:31;12.63;;;11.33;;
6223;SDS011;3145;42.726;23.342;2022-10-16T03:19:58;11.70;;;10.50;;
6223;SDS011;3145;42.726;23.342;2022-10-16T03:22:26;11.93;;;10.73;;
6223;SDS011;3145;42.726;23.342;2022-10-16T03:24:53;13.87;;;10.73;;
6223;SDS011;3145;42.726;23.342;2022-10-16T03:27:20;12.67;;;11.40;;
6223;SDS011;3145;42.726;23.342;2022-10-16T03:29:47;12.40;;;11.07;;
6223;SDS011;3145;42.726;23.342;2022-10-16T03:32:14;18.70;;;12.83;;
6223;SDS011;3145;42.726;23.342;2022-10-16T03:34:40;18.83;;;13.97;;
6223;SDS011;3145;42.726;23.342;2022-10-16T03:37:07;13.77;;;12.03;;
6223;SDS011;3145;42.726;23.342;2022-10-16T03:39:35;12.87;;;11.33;;
6223;SDS011;3145;42.726;23.342;2022-10-16T03:42:02;13.77;;;11.63;;
6223;SDS011;3145;42.726;23.342;2022-10-16T03:44:29;14.23;;;12.30;;
6223;SDS011;3145;42.726;23.342;2022-10-16T03:46:55;19.50;;;13.53;;
6223;SDS011;3145;42.726;23.342;2022-10-16T03:49:22;16.80;;;13.87;;
6223;SDS011;3145;42.726;23.342;2022-10-16T03:51:49;18.37;;;13.60;;
6223;SDS011;3145;42.726;23.342;2022-10-16T03:54:15;14.30;;;12.17;;
6223;SDS011;3145;42.726;23.342;2022-10-16T03:56:43;15.60;;;12.57;;
6223;SDS011;3145;42.726;23.342;2022-10-16T03:59:10;15.87;;;13.00;;
6223;SDS011;3145;42.726;23.342;2022-10-16T04:01:37;16.73;;;13.20;;
6223;SDS011;3145;42.726;23.342;2022-10-16T04:04:04;20.10;;;12.97;;
6223;SDS011;3145;42.726;23.342;2022-10-16T04:06:30;20.00;;;13.13;;
6223;SDS011;3145;42.726;23.342;2022-10-16T04:08:57;18.57;;;13.17;;
6223;SDS011;3145;42.726;23.342;2022-10-16T04:11:25;19.70;;;14.03;;
6223;SDS011;3145;42.726;23.342;2022-10-16T04:13:53;24.33;;;16.73;;
6223;SDS011;3145;42.726;23.342;2022-10-16T04:16:20;27.07;;;17.47;;
6223;SDS011;3145;42.726;23.342;2022-10-16T04:18:47;30.07;;;18.13;;
6223;SDS011;3145;42.726;23.342;2022-10-16T04:21:13;29.23;;;16.90;;
6223;SDS011;3145;42.726;23.342;2022-10-16T04:23:40;22.93;;;15.97;;
6223;SDS011;3145;42.726;23.342;2022-10-16T04:26:08;19.20;;;13.50;;
6223;SDS011;3145;42.726;23.342;2022-10-16T04:28:35;18.27;;;13.03;;
6223;SDS011;3145;42.726;23.342;2022-10-16T04:31:04;26.53;;;17.27;;
6223;SDS011;3145;42.726;23.342;2022-10-16T04:33:31;28.07;;;17.07;;
6223;SDS011;3145;42.726;23.342;2022-10-16T04:35:59;22.27;;;16.27;;
6223;SDS011;3145;42.726;23.342;2022-10-16T04:38:27;22.37;;;16.47;;
6223;SDS011;3145;42.726;23.342;2022-10-16T04:40:54;25.57;;;16.87;;
6223;SDS011;3145;42.726;23.342;2022-10-16T04:43:20;26.63;;;17.23;;
6223;SDS011;3145;42.726;23.342;2022-10-16T04:45:47;25.70;;;17.60;;
6223;SDS011;3145;42.726;23.342;2022-10-16T04:48:17;27.63;;;21.27;;
6223;SDS011;3145;42.726;23.342;2022-10-16T04:50:44;28.33;;;19.60;;
6223;SDS011;3145;42.726;23.342;2022-10-16T04:53:10;26.87;;;20.63;;
6223;SDS011;3145;42.726;23.342;2022-10-16T04:55:37;25.70;;;20.03;;
6223;SDS011;3145;42.726;23.342;2022-10-16T04:58:04;19.77;;;16.00;;
6223;SDS011;3145;42.726;23.342;2022-10-16T05:00:31;15.80;;;13.67;;
6223;SDS011;3145;42.726;23.342;2022-10-16T05:02:58;20.20;;;15.37;;
6223;SDS011;3145;42.726;23.342;2022-10-16T05:05:27;15.77;;;14.17;;
6223;SDS011;3145;42.726;23.342;2022-10-16T05:07:54;16.13;;;12.80;;
6223;SDS011;3145;42.726;23.342;2022-10-16T05:10:20;15.63;;;13.23;;
6223;SDS011;3145;42.726;23.342;2022-10-16T05:12:47;13.80;;;12.37;;
6223;SDS011;3145;42.726;23.342;2022-10-16T05:15:14;13.23;;;10.97;;
6223;SDS011;3145;42.726;23.342;2022-10-16T05:17:41;11.67;;;10.60;;
6223;SDS011;3145;42.726;23.342;2022-10-16T05:20:07;15.77;;;10.30;;
6223;SDS011;3145;42.726;23.342;2022-10-16T05:22:36;11.67;;;10.63;;
6223;SDS011;3145;42.726;23.342;2022-10-16T05:25:02;13.97;;;9.63;;
6223;SDS011;3145;42.726;23.342;2022-10-16T05:27:30;13.73;;;10.80;;
6223;SDS011;3145;42.726;23.342;2022-10-16T05:29:57;20.10;;;14.43;;
6223;SDS011;3145;42.726;23.342;2022-10-16T05:32:23;19.63;;;14.73;;
6223;SDS011;3145;42.726;23.342;2022-10-16T05:34:50;15.17;;;10.00;;
6223;SDS011;3145;42.726;23.342;2022-10-16T05:37:17;12.67;;;10.70;;
6223;SDS011;3145;42.726;23.342;2022-10-16T05:39:45;13.97;;;10.37;;
6223;SDS011;3145;42.726;23.342;2022-10-16T05:42:12;9.93;;;8.87;;
6223;SDS011;3145;42.726;23.342;2022-10-16T05:44:39;8.97;;;8.07;;
6223;SDS011;3145;42.726;23.342;2022-10-16T05:47:06;8.10;;;7.40;;
6223;SDS011;3145;42.726;23.342;2022-10-16T05:49:33;9.10;;;7.73;;
6223;SDS011;3145;42.726;23.342;2022-10-16T05:51:59;8.60;;;7.70;;
6223;SDS011;3145;42.726;23.342;2022-10-16T05:54:26;10.63;;;8.43;;
6223;SDS011;3145;42.726;23.342;2022-10-16T05:56:54;8.57;;;7.77;;
6223;SDS011;3145;42.726;23.342;2022-10-16T05:59:21;11.23;;;8.67;;
6223;SDS011;3145;42.726;23.342;2022-10-16T06:01:47;13.77;;;9.43;;
6223;SDS011;3145;42.726;23.342;2022-10-16T06:04:14;13.37;;;9.73;;
6223;SDS011;3145;42.726;23.342;2022-10-16T06:06:41;10.57;;;7.67;;
6223;SDS011;3145;42.726;23.342;2022-10-16T06:09:08;9.60;;;7.90;;
6223;SDS011;3145;42.726;23.342;2022-10-16T06:11:35;11.20;;;8.03;;
6223;SDS011;3145;42.726;23.342;2022-10-16T06:14:04;9.37;;;8.47;;
6223;SDS011;3145;42.726;23.342;2022-10-16T06:16:32;11.53;;;8.60;;
6223;SDS011;3145;42.726;23.342;2022-10-16T06:18:59;12.57;;;9.33;;
6223;SDS011;3145;42.726;23.342;2022-10-16T06:21:27;9.90;;;9.00;;
6223;SDS011;3145;42.726;23.342;2022-10-16T06:23:55;10.10;;;9.10;;
6223;SDS011;3145;42.726;23.342;2022-10-16T06:26:23;13.00;;;9.40;;
6223;SDS011;3145;42.726;23.342;2022-10-16T06:28:53;12.03;;;9.77;;
6223;SDS011;3145;42.726;23.342;2022-10-16T06:31:22;12.63;;;9.63;;
6223;SDS011;3145;42.726;23.342;2022-10-16T06:33:53;15.27;;;10.23;;
6223;SDS011;3145;42.726;23.342;2022-10-16T06:36:21;19.70;;;12.60;;
6223;SDS011;3145;42.726;23.342;2022-10-16T06:38:48;14.20;;;10.20;;
6223;SDS011;3145;42.726;23.342;2022-10-16T06:41:15;11.63;;;10.43;;
6223;SDS011;3145;42.726;23.342;2022-10-16T06:43:43;24.30;;;15.77;;
6223;SDS011;3145;42.726;23.342;2022-10-16T06:46:11;18.10;;;13.93;;
6223;SDS011;3145;42.726;23.342;2022-10-16T06:48:40;21.57;;;13.37;;
6223;SDS011;3145;42.726;23.342;2022-10-16T06:51:08;13.33;;;10.80;;
6223;SDS011;3145;42.726;23.342;2022-10-16T06:53:37;14.27;;;11.13;;
6223;SDS011;3145;42.726;23.342;2022-10-16T06:56:07;11.63;;;10.53;;
6223;SDS011;3145;42.726;23.342;2022-10-16T06:58:35;14.23;;;10.70;;
6223;SDS011;3145;42.726;23.342;2022-10-16T07:01:01;12.00;;;10.70;;
6223;SDS011;3145;42.726;23.342;2022-10-16T07:03:28;11.93;;;10.70;;
6223;SDS011;3145;42.726;23.342;2022-10-16T07:05:57;11.00;;;9.93;;
6223;SDS011;3145;42.726;23.342;2022-10-16T07:08:27;12.53;;;11.13;;
6223;SDS011;3145;42.726;23.342;2022-10-16T07:10:57;12.13;;;10.97;;
6223;SDS011;3145;42.726;23.342;2022-10-16T07:13:25;11.73;;;10.53;;
6223;SDS011;3145;42.726;23.342;2022-10-16T07:15:52;12.47;;;10.87;;
6223;SDS011;3145;42.726;23.342;2022-10-16T07:18:19;12.20;;;10.83;;
6223;SDS011;3145;42.726;23.342;2022-10-16T07:20:45;14.43;;;11.13;;
6223;SDS011;3145;42.726;23.342;2022-10-16T07:23:13;12.13;;;10.83;;
6223;SDS011;3145;42.726;23.342;2022-10-16T07:25:40;13.43;;;10.70;;
6223;SDS011;3145;42.726;23.342;2022-10-16T07:28:07;11.37;;;9.83;;
6223;SDS011;3145;42.726;23.342;2022-10-16T07:30:34;10.70;;;9.70;;
6223;SDS011;3145;42.726;23.342;2022-10-16T07:33:02;10.50;;;9.60;;
6223;SDS011;3145;42.726;23.342;2022-10-16T07:35:29;11.27;;;9.70;;
6223;SDS011;3145;42.726;23.342;2022-10-16T07:37:56;11.73;;;10.20;;
6223;SDS011;3145;42.726;23.342;2022-10-16T07:40:24;56.97;;;32.53;;
6223;SDS011;3145;42.726;23.342;2022-10-16T07:42:52;60.27;;;28.20;;
6223;SDS011;3145;42.726;23.342;2022-10-16T07:45:18;9.70;;;8.70;;
6223;SDS011;3145;42.726;23.342;2022-10-16T07:47:45;11.93;;;9.27;;
6223;SDS011;3145;42.726;23.342;2022-10-16T07:50:12;42.83;;;23.60;;
6223;SDS011;3145;42.726;23.342;2022-10-16T07:52:39;12.87;;;10.87;;
6223;SDS011;3145;42.726;23.342;2022-10-16T07:55:06;36.20;;;18.70;;
6223;SDS011;3145;42.726;23.342;2022-10-16T07:57:34;27.47;;;14.37;;
6223;SDS011;3145;42.726;23.342;2022-10-16T08:00:01;15.93;;;10.53;;
6223;SDS011;3145;42.726;23.342;2022-10-16T08:02:28;10.47;;;9.57;;
6223;SDS011;3145;42.726;23.342;2022-10-16T08:04:55;11.97;;;9.40;;
6223;SDS011;3145;42.726;23.342;2022-10-16T08:07:22;14.60;;;9.33;;
6223;SDS011;3145;42.726;23.342;2022-10-16T08:09:49;16.70;;;11.33;;
6223;SDS011;3145;42.726;23.342;2022-10-16T08:12:16;11.60;;;9.27;;
6223;SDS011;3145;42.726;23.342;2022-10-16T08:14:44;20.17;;;11.73;;
6223;SDS011;3145;42.726;23.342;2022-10-16T08:17:13;11.40;;;9.80;;
6223;SDS011;3145;42.726;23.342;2022-10-16T08:19:43;14.93;;;10.37;;
6223;SDS011;3145;42.726;23.342;2022-10-16T08:22:11;15.17;;;9.33;;
6223;SDS011;3145;42.726;23.342;2022-10-16T08:24:38;10.67;;;9.63;;
6223;SDS011;3145;42.726;23.342;2022-10-16T08:27:04;12.37;;;9.43;;
6223;SDS011;3145;42.726;23.342;2022-10-16T08:29:31;11.23;;;9.17;;
6223;SDS011;3145;42.726;23.342;2022-10-16T08:32:00;9.57;;;8.60;;
6223;SDS011;3145;42.726;23.342;2022-10-16T08:34:26;9.50;;;8.70;;
6223;SDS011;3145;42.726;23.342;2022-10-16T08:36:53;8.63;;;7.83;;
6223;SDS011;3145;42.726;23.342;2022-10-16T08:39:20;10.60;;;8.23;;
6223;SDS011;3145;42.726;23.342;2022-10-16T08:41:59;14.33;;;8.07;;
6223;SDS011;3145;42.726;23.342;2022-10-16T08:44:42;8.80;;;7.73;;
6223;SDS011;3145;42.726;23.342;2022-10-16T08:47:19;7.90;;;6.90;;
6223;SDS011;3145;42.726;23.342;2022-10-16T08:49:52;8.03;;;7.23;;
6223;SDS011;3145;42.726;23.342;2022-10-16T08:52:23;9.13;;;6.63;;
6223;SDS011;3145;42.726;23.342;2022-10-16T08:54:54;6.53;;;5.60;;
6223;SDS011;3145;42.726;23.342;2022-10-16T08:57:22;5.20;;;4.80;;
6223;SDS011;3145;42.726;23.342;2022-10-16T08:59:52;5.00;;;4.47;;
6223;SDS011;3145;42.726;23.342;2022-10-16T09:02:24;8.90;;;5.73;;
6223;SDS011;3145;42.726;23.342;2022-10-16T09:04:58;7.07;;;5.20;;
6223;SDS011;3145;42.726;23.342;2022-10-16T09:07:38;7.60;;;4.33;;
6223;SDS011;3145;42.726;23.342;2022-10-16T09:10:15;7.10;;;5.00;;
6223;SDS011;3145;42.726;23.342;2022-10-16T09:12:54;5.13;;;4.73;;
6223;SDS011;3145;42.726;23.342;2022-10-16T09:15:29;6.83;;;4.57;;
6223;SDS011;3145;42.726;23.342;2022-10-16T09:18:04;5.43;;;5.03;;
6223;SDS011;3145;42.726;23.342;2022-10-16T09:20:41;4.47;;;4.17;;
6223;SDS011;3145;42.726;23.342;2022-10-16T09:23:16;5.30;;;4.90;;
6223;SDS011;3145;42.726;23.342;2022-10-16T09:25:45;5.97;;;5.40;;
6223;SDS011;3145;42.726;23.342;2022-10-16T09:28:16;5.57;;;5.00;;
6223;SDS011;3145;42.726;23.342;2022-10-16T09:30:44;4.93;;;4.53;;
6223;SDS011;3145;42.726;23.342;2022-10-16T09:33:14;6.03;;;5.43;;
6223;SDS011;3145;42.726;23.342;2022-10-16T09:35:43;5.20;;;4.60;;
6223;SDS011;3145;42.726;23.342;2022-10-16T09:38:20;5.07;;;4.50;;
6223;SDS011;3145;42.726;23.342;2022-10-16T09:40:48;4.80;;;4.40;;
6223;SDS011;3145;42.726;23.342;2022-10-16T09:43:19;5.10;;;4.70;;
6223;SDS011;3145;42.726;23.342;2022-10-16T09:45:55;5.23;;;4.77;;
6223;SDS011;3145;42.726;23.342;2022-10-16T09:48:25;6.20;;;4.97;;
6223;SDS011;3145;42.726;23.342;2022-10-16T09:50:58;5.30;;;4.80;;
6223;SDS011;3145;42.726;23.342;2022-10-16T09:53:27;4.70;;;4.30;;
6223;SDS011;3145;42.726;23.342;2022-10-16T09:56:05;5.13;;;4.63;;
6223;SDS011;3145;42.726;23.342;2022-10-16T09:58:32;4.80;;;4.40;;
6223;SDS011;3145;42.726;23.342;2022-10-16T10:00:59;5.03;;;4.63;;
6223;SDS011;3145;42.726;23.342;2022-10-16T10:03:36;5.57;;;5.10;;
6223;SDS011;3145;42.726;23.342;2022-10-16T10:06:06;4.90;;;4.40;;
6223;SDS011;3145;42.726;23.342;2022-10-16T10:08:52;5.27;;;4.53;;
6223;SDS011;3145;42.726;23.342;2022-10-16T10:11:36;4.73;;;4.33;;
6223;SDS011;3145;42.726;23.342;2022-10-16T10:14:22;7.90;;;4.70;;
6223;SDS011;3145;42.726;23.342;2022-10-16T10:16:51;5.17;;;4.67;;
6223;SDS011;3145;42.726;23.342;2022-10-16T10:19:28;4.67;;;4.37;;
6223;SDS011;3145;42.726;23.342;2022-10-16T10:21:55;9.07;;;4.70;;
6223;SDS011;3145;42.726;23.342;2022-10-16T10:24:22;5.90;;;5.00;;
6223;SDS011;3145;42.726;23.342;2022-10-16T10:26:51;4.67;;;4.27;;
6223;SDS011;3145;42.726;23.342;2022-10-16T10:29:29;4.03;;;3.67;;
6223;SDS011;3145;42.726;23.342;2022-10-16T10:32:09;5.00;;;4.47;;
6223;SDS011;3145;42.726;23.342;2022-10-16T10:34:53;5.50;;;5.00;;
6223;SDS011;3145;42.726;23.342;2022-10-16T10:37:34;5.80;;;4.90;;
6223;SDS011;3145;42.726;23.342;2022-10-16T10:40:15;4.50;;;4.07;;
6223;SDS011;3145;42.726;23.342;2022-10-16T10:42:55;5.00;;;4.53;;
6223;SDS011;3145;42.726;23.342;2022-10-16T10:45:33;6.50;;;5.83;;
6223;SDS011;3145;42.726;23.342;2022-10-16T10:48:15;5.53;;;5.00;;
6223;SDS011;3145;42.726;23.342;2022-10-16T10:50:52;6.13;;;5.63;;
6223;SDS011;3145;42.726;23.342;2022-10-16T10:53:25;5.57;;;5.07;;
6223;SDS011;3145;42.726;23.342;2022-10-16T10:56:05;5.27;;;4.77;;
6223;SDS011;3145;42.726;23.342;2022-10-16T10:58:55;5.40;;;5.00;;
6223;SDS011;3145;42.726;23.342;2022-10-16T11:01:48;5.10;;;4.40;;
6223;SDS011;3145;42.726;23.342;2022-10-16T11:04:26;4.97;;;4.33;;
6223;SDS011;3145;42.726;23.342;2022-10-16T11:07:05;5.60;;;5.10;;
6223;SDS011;3145;42.726;23.342;2022-10-16T11:09:40;5.10;;;4.73;;
6223;SDS011;3145;42.726;23.342;2022-10-16T11:12:12;5.13;;;4.47;;
6223;SDS011;3145;42.726;23.342;2022-10-16T11:14:46;5.47;;;4.97;;
6223;SDS011;3145;42.726;23.342;2022-10-16T11:17:17;12.33;;;4.83;;
6223;SDS011;3145;42.726;23.342;2022-10-16T11:19:51;5.17;;;4.77;;
6223;SDS011;3145;42.726;23.342;2022-10-16T11:22:24;6.50;;;5.80;;
6223;SDS011;3145;42.726;23.342;2022-10-16T11:24:59;5.33;;;4.83;;
6223;SDS011;3145;42.726;23.342;2022-10-16T11:27:33;4.93;;;4.53;;
6223;SDS011;3145;42.726;23.342;2022-10-16T11:30:05;6.33;;;4.50;;
6223;SDS011;3145;42.726;23.342;2022-10-16T11:32:47;5.70;;;5.00;;
6223;SDS011;3145;42.726;23.342;2022-10-16T11:35:21;4.87;;;4.47;;
6223;SDS011;3145;42.726;23.342;2022-10-16T11:37:53;5.10;;;4.67;;
6223;SDS011;3145;42.726;23.342;2022-10-16T11:40:24;6.70;;;5.23;;
6223;SDS011;3145;42.726;23.342;2022-10-16T11:42:57;4.83;;;4.43;;
6223;SDS011;3145;42.726;23.342;2022-10-16T11:45:30;5.20;;;4.70;;
6223;SDS011;3145;42.726;23.342;2022-10-16T11:48:05;6.00;;;4.90;;
6223;SDS011;3145;42.726;23.342;2022-10-16T11:50:43;5.93;;;4.57;;
6223;SDS011;3145;42.726;23.342;2022-10-16T11:53:18;4.87;;;4.40;;
6223;SDS011;3145;42.726;23.342;2022-10-16T11:55:52;4.43;;;4.00;;
6223;SDS011;3145;42.726;23.342;2022-10-16T11:58:22;4.50;;;4.10;;
6223;SDS011;3145;42.726;23.342;2022-10-16T12:00:55;4.10;;;3.80;;
6223;SDS011;3145;42.726;23.342;2022-10-16T12:03:29;5.10;;;4.40;;
6223;SDS011;3145;42.726;23.342;2022-10-16T12:06:12;5.90;;;4.07;;
6223;SDS011;3145;42.726;23.342;2022-10-16T12:08:50;3.93;;;3.63;;
6223;SDS011;3145;42.726;23.342;2022-10-16T12:11:22;3.50;;;3.30;;
6223;SDS011;3145;42.726;23.342;2022-10-16T12:13:50;4.30;;;3.90;;
6223;SDS011;3145;42.726;23.342;2022-10-16T12:16:20;5.90;;;4.23;;
6223;SDS011;3145;42.726;23.342;2022-10-16T12:18:48;7.30;;;4.33;;
6223;SDS011;3145;42.726;23.342;2022-10-16T12:21:16;4.10;;;3.80;;
6223;SDS011;3145;42.726;23.342;2022-10-16T12:23:47;4.50;;;4.10;;
6223;SDS011;3145;42.726;23.342;2022-10-16T12:26:24;4.30;;;4.00;;
6223;SDS011;3145;42.726;23.342;2022-10-16T12:28:53;4.60;;;4.23;;
6223;SDS011;3145;42.726;23.342;2022-10-16T12:31:20;3.33;;;3.13;;
6223;SDS011;3145;42.726;23.342;2022-10-16T12:33:57;9.40;;;4.80;;
6223;SDS011;3145;42.726;23.342;2022-10-16T12:36:29;5.27;;;3.90;;
6223;SDS011;3145;42.726;23.342;2022-10-16T12:39:05;4.67;;;3.67;;
6223;SDS011;3145;42.726;23.342;2022-10-16T12:42:03;9.23;;;4.20;;
6223;SDS011;3145;42.726;23.342;2022-10-16T12:44:32;4.50;;;4.20;;
6223;SDS011;3145;42.726;23.342;2022-10-16T12:46:59;7.07;;;3.30;;
6223;SDS011;3145;42.726;23.342;2022-10-16T12:49:30;3.40;;;3.10;;
6223;SDS011;3145;42.726;23.342;2022-10-16T12:52:02;4.57;;;3.17;;
6223;SDS011;3145;42.726;23.342;2022-10-16T12:54:30;3.67;;;3.37;;
6223;SDS011;3145;42.726;23.342;2022-10-16T12:59:58;3.50;;;2.90;;
6223;SDS011;3145;42.726;23.342;2022-10-16T13:02:44;4.03;;;3.73;;
6223;SDS011;3145;42.726;23.342;2022-10-16T13:05:29;3.70;;;3.40;;
6223;SDS011;3145;42.726;23.342;2022-10-16T13:08:14;3.63;;;3.33;;
6223;SDS011;3145;42.726;23.342;2022-10-16T13:10:56;3.67;;;3.47;;
6223;SDS011;3145;42.726;23.342;2022-10-16T13:13:43;3.63;;;3.33;;
6223;SDS011;3145;42.726;23.342;2022-10-16T13:16:22;6.00;;;3.30;;
6223;SDS011;3145;42.726;23.342;2022-10-16T13:19:00;6.90;;;3.20;;
6223;SDS011;3145;42.726;23.342;2022-10-16T13:21:39;3.00;;;2.80;;
6223;SDS011;3145;42.726;23.342;2022-10-16T13:24:23;2.90;;;2.60;;
6223;SDS011;3145;42.726;23.342;2022-10-16T13:27:04;4.17;;;2.80;;
6223;SDS011;3145;42.726;23.342;2022-10-16T13:29:35;4.30;;;2.57;;
6223;SDS011;3145;42.726;23.342;2022-10-16T13:32:06;2.80;;;2.60;;
6223;SDS011;3145;42.726;23.342;2022-10-16T13:34:42;3.80;;;2.57;;
6223;SDS011;3145;42.726;23.342;2022-10-16T13:37:16;3.00;;;2.40;;
6223;SDS011;3145;42.726;23.342;2022-10-16T13:39:44;3.10;;;2.57;;
6223;SDS011;3145;42.726;23.342;2022-10-16T13:42:12;4.73;;;2.63;;
6223;SDS011;3145;42.726;23.342;2022-10-16T13:44:43;3.00;;;2.80;;
6223;SDS011;3145;42.726;23.342;2022-10-16T13:47:15;3.30;;;2.90;;
6223;SDS011;3145;42.726;23.342;2022-10-16T13:49:43;2.60;;;2.47;;
6223;SDS011;3145;42.726;23.342;2022-10-16T13:52:15;3.37;;;2.93;;
6223;SDS011;3145;42.726;23.342;2022-10-16T13:54:44;3.30;;;2.50;;
6223;SDS011;3145;42.726;23.342;2022-10-16T13:57:12;3.60;;;3.30;;
6223;SDS011;3145;42.726;23.342;2022-10-16T13:59:40;4.10;;;3.40;;
6223;SDS011;3145;42.726;23.342;2022-10-16T14:02:17;4.03;;;3.20;;
6223;SDS011;3145;42.726;23.342;2022-10-16T14:04:48;3.40;;;3.10;;
6223;SDS011;3145;42.726;23.342;2022-10-16T14:07:23;5.10;;;2.77;;
6223;SDS011;3145;42.726;23.342;2022-10-16T14:09:51;4.43;;;2.90;;
6223;SDS011;3145;42.726;23.342;2022-10-16T14:12:19;3.57;;;3.03;;
6223;SDS011;3145;42.726;23.342;2022-10-16T14:14:48;3.63;;;3.30;;
6223;SDS011;3145;42.726;23.342;2022-10-16T14:17:19;3.37;;;3.00;;
6223;SDS011;3145;42.726;23.342;2022-10-16T14:19:50;4.03;;;3.70;;
6223;SDS011;3145;42.726;23.342;2022-10-16T14:22:23;4.20;;;3.37;;
6223;SDS011;3145;42.726;23.342;2022-10-16T14:24:54;3.13;;;2.83;;
6223;SDS011;3145;42.726;23.342;2022-10-16T14:27:23;3.33;;;3.07;;
6223;SDS011;3145;42.726;23.342;2022-10-16T14:30:03;3.87;;;3.17;;
6223;SDS011;3145;42.726;23.342;2022-10-16T14:32:41;2.97;;;2.67;;
6223;SDS011;3145;42.726;23.342;2022-10-16T14:35:22;4.50;;;4.10;;
6223;SDS011;3145;42.726;23.342;2022-10-16T14:37:51;4.33;;;3.87;;
6223;SDS011;3145;42.726;23.342;2022-10-16T14:40:18;3.80;;;3.50;;
6223;SDS011;3145;42.726;23.342;2022-10-16T14:42:49;3.90;;;3.43;;
6223;SDS011;3145;42.726;23.342;2022-10-16T14:45:18;7.83;;;4.03;;
6223;SDS011;3145;42.726;23.342;2022-10-16T14:47:49;3.07;;;2.77;;
6223;SDS011;3145;42.726;23.342;2022-10-16T14:50:18;2.70;;;2.53;;
6223;SDS011;3145;42.726;23.342;2022-10-16T14:52:45;3.40;;;3.10;;
6223;SDS011;3145;42.726;23.342;2022-10-16T14:55:12;3.60;;;3.17;;
6223;SDS011;3145;42.726;23.342;2022-10-16T14:57:39;3.87;;;3.57;;
6223;SDS011;3145;42.726;23.342;2022-10-16T15:00:10;3.33;;;3.13;;
6223;SDS011;3145;42.726;23.342;2022-10-16T15:02:41;4.87;;;4.40;;
6223;SDS011;3145;42.726;23.342;2022-10-16T15:05:12;4.40;;;3.40;;
6223;SDS011;3145;42.726;23.342;2022-10-16T15:07:42;10.67;;;5.87;;
6223;SDS011;3145;42.726;23.342;2022-10-16T15:10:10;6.00;;;5.40;;